Saint-Charles-Sur-Richelieu, Canada
Current Conditions -  °F | °C
As of 11:03 PM on Saturday 25 Oct 2014 (Local Time) from CYHU Reporting Station
Overcast Overcast  
Wind Chill: 54°   Ceiling: 1500
Heat Index: 54°   Visibility: 8mi
Dew Point: 50°   Wind: 10mph
Humidity: 88%   Direction: 250°WSW
Pressure: 29.4"   Gusts: NA
Location:  45.68°N, 73.18°W
Report Text: CYHU 260303Z AUTO 25009KT 8SM BKN015 OVC022 12/10 A2940 RMK LTNG DIST W NW SLP958 DENSITY ALT 300FT
Loading
Personal Weather Stations






























Interactive Weather Map
Tropical Storm Tracking
New forecast layout! Learn more

10-Day Weather Forecast

Advertisements
Track Severe Weather on mobile